Time;durP1;ratioP1;P1;durP2;ratioP2;P2;SDS_P1;SDS_P2;PMS_P1;PMS_P2;Temp;Humidity;BMP_temperature;BMP_pressure;BME280_temperature;BME280_humidity;BME280_pressure;Samples;Min_cycle;Max_cycle;Signal;HPM_P1;HPM_P2
2022/05/17 00:01:15;;;;;;;6.30;3.10;;;;;;;14.85;42.01;100739.96;109548;1276;22340;-76
2022/05/17 00:03:42;;;;;;;5.30;2.60;;;;;;;14.83;42.04;100738.42;109474;1276;22489;-76
2022/05/17 00:06:08;;;;;;;6.90;3.20;;;;;;;14.82;41.92;100737.75;109321;1277;22390;-75
2022/05/17 00:08:34;;;;;;;4.20;2.40;;;;;;;14.81;42.02;100736.86;109473;1277;22418;-74
2022/05/17 00:11:01;;;;;;;4.30;2.10;;;;;;;14.80;41.96;100736.52;109211;1277;22548;-73
2022/05/17 00:13:28;;;;;;;3.60;2.60;;;;;;;14.77;41.87;100739.77;109286;1277;22367;-74
2022/05/17 00:15:54;;;;;;;4.90;2.10;;;;;;;14.71;41.96;100740.05;109361;1277;23136;-73
2022/05/17 00:18:22;;;;;;;4.00;2.10;;;;;;;14.67;41.96;100737.30;109439;1273;22467;-73
2022/05/17 00:20:48;;;;;;;4.20;2.20;;;;;;;14.63;42.01;100737.04;109736;1272;22499;-74
2022/05/17 00:23:15;;;;;;;3.60;1.90;;;;;;;14.58;41.98;100733.95;109737;1270;22372;-73
2022/05/17 00:25:43;;;;;;;3.10;2.30;;;;;;;14.50;41.85;100731.08;109782;1271;23164;-72
2022/05/17 00:28:09;;;;;;;6.30;2.40;;;;;;;14.46;41.85;100727.43;109742;1271;22314;-74
2022/05/17 00:30:36;;;;;;;6.00;1.90;;;;;;;14.42;41.82;100730.01;109812;1271;22369;-76
2022/05/17 00:33:02;;;;;;;4.70;2.10;;;;;;;14.38;41.91;100731.49;109730;1271;22542;-74
2022/05/17 00:35:29;;;;;;;2.50;2.00;;;;;;;14.34;41.88;100730.52;109753;1271;22442;-77
2022/05/17 00:37:55;;;;;;;5.40;2.50;;;;;;;14.28;41.84;100731.33;109703;1273;22387;-73
2022/05/17 00:40:21;;;;;;;4.70;1.80;;;;;;;14.17;41.94;100729.05;109744;1271;22923;-75
2022/05/17 00:42:48;;;;;;;3.00;1.80;;;;;;;14.10;42.13;100728.30;109700;1273;22379;-76
2022/05/17 00:45:14;;;;;;;3.20;1.90;;;;;;;14.04;42.17;100722.92;109766;1271;22331;-75
2022/05/17 00:47:51;;;;;;;4.20;1.80;;;;;;;14.01;42.34;100726.70;109764;1271;23148;-76
2022/05/17 00:50:20;;;;;;;3.60;2.00;;;;;;;13.95;42.27;100720.61;109549;1274;22324;-75
2022/05/17 00:52:58;;;;;;;2.90;1.70;;;;;;;13.91;42.38;100721.73;109721;1271;22412;-74
2022/05/17 00:55:39;;;;;;;3.60;2.10;;;;;;;13.85;42.45;100720.06;109709;1271;22338;-73
2022/05/17 00:58:10;;;;;;;4.60;1.60;;;;;;;13.83;42.72;100719.75;109800;1271;22923;-75
2022/05/17 01:00:43;;;;;;;3.10;1.80;;;;;;;13.80;42.78;100723.16;109782;1271;22396;-76
2022/05/17 01:03:14;;;;;;;2.10;1.70;;;;;;;13.75;42.84;100722.01;109791;1268;22951;-75
2022/05/17 01:05:44;;;;;;;3.00;2.00;;;;;;;13.73;42.83;100722.39;109799;1271;22346;-75
2022/05/17 01:08:14;;;;;;;6.80;2.20;;;;;;;13.70;42.89;100717.84;109298;1277;22444;-74
2022/05/17 01:10:40;;;;;;;4.20;1.80;;;;;;;13.69;42.95;100719.29;109298;1277;22405;-73
2022/05/17 01:15:51;;;;;;;2.60;1.70;;;;;;;13.67;43.03;100718.45;109473;1276;22499;-74
2022/05/17 01:18:18;;;;;;;3.60;1.80;;;;;;;13.63;42.96;100717.61;109295;1277;22338;-75
2022/05/17 01:20:45;;;;;;;3.50;1.80;;;;;;;13.58;42.96;100716.63;109306;1278;22420;-76
2022/05/17 01:23:12;;;;;;;5.30;1.80;;;;;;;13.55;43.02;100717.55;109149;1279;23058;-76
2022/05/17 01:25:40;;;;;;;1.90;1.70;;;;;;;13.52;43.01;100713.53;108732;1280;22185;-78
2022/05/17 01:28:18;;;;;;;5.60;2.00;;;;;;;13.48;42.93;100711.28;109169;1280;22428;-73
2022/05/17 01:30:45;;;;;;;2.70;1.50;;;;;;;13.43;43.00;100715.06;108925;1280;22337;-75
2022/05/17 01:33:19;;;;;;;2.30;1.70;;;;;;;13.36;42.89;100717.47;108769;1281;22784;-75
2022/05/17 01:35:45;;;;;;;1.90;1.60;;;;;;;13.24;42.97;100721.54;109167;1280;22406;-75
2022/05/17 01:38:13;;;;;;;3.50;1.70;;;;;;;13.16;43.10;100722.70;109175;1280;22391;-76
2022/05/17 01:40:40;;;;;;;4.30;1.50;;;;;;;13.14;43.19;100724.86;109186;1279;22499;-80
2022/05/17 01:43:07;;;;;;;6.80;1.80;;;;;;;13.11;43.15;100724.38;109315;1272;22181;-75
2022/05/17 01:45:34;;;;;;;4.80;1.90;;;;;;;13.05;43.12;100722.17;109739;1271;22298;-76
2022/05/17 01:48:00;;;;;;;3.40;1.60;;;;;;;13.03;43.24;100721.31;109814;1271;22660;-76
2022/05/17 01:50:26;;;;;;;2.70;2.00;;;;;;;13.02;43.19;100723.08;109732;1271;22335;-77
2022/05/17 01:52:53;;;;;;;2.20;1.70;;;;;;;12.96;43.16;100725.11;109174;1278;22478;-75
2022/05/17 01:55:19;;;;;;;2.70;1.90;;;;;;;12.91;43.34;100727.48;109282;1277;22565;-74
2022/05/17 01:57:46;;;;;;;4.40;2.10;;;;;;;12.93;43.43;100730.28;109214;1277;22410;-74
2022/05/17 02:00:15;;;;;;;2.70;1.80;;;;;;;12.91;43.36;100732.77;108806;1277;22561;-75
2022/05/17 02:02:41;;;;;;;3.20;1.50;;;;;;;12.90;43.47;100732.98;109464;1277;22386;-77
2022/05/17 02:05:14;;;;;;;1.90;1.60;;;;;;;12.90;43.50;100734.05;109270;1277;23038;-73
2022/05/17 02:07:41;;;;;;;2.00;1.80;;;;;;;12.89;43.79;100736.17;109277;1277;22513;-74
2022/05/17 02:10:08;;;;;;;2.10;1.50;;;;;;;12.84;43.78;100734.11;109221;1277;23399;-74
2022/05/17 02:12:35;;;;;;;4.50;1.90;;;;;;;12.79;43.72;100737.36;109216;1277;22356;-74
2022/05/17 02:15:03;;;;;;;2.80;1.90;;;;;;;12.74;43.87;100742.54;109350;1277;22405;-76
2022/05/17 02:17:29;;;;;;;2.00;1.80;;;;;;;12.70;43.97;100739.94;109531;1272;22339;-76
2022/05/17 02:19:55;;;;;;;2.50;1.80;;;;;;;12.65;44.08;100740.89;109505;1274;22261;-75
2022/05/17 02:22:22;;;;;;;3.60;1.70;;;;;;;12.61;44.22;100747.13;109819;1271;23052;-75
2022/05/17 02:24:48;;;;;;;2.70;1.70;;;;;;;12.58;44.34;100751.56;109760;1272;22469;-75
2022/05/17 02:27:14;;;;;;;3.30;1.60;;;;;;;12.49;44.41;100746.91;109761;1272;22405;-75
2022/05/17 02:29:40;;;;;;;3.70;2.00;;;;;;;12.51;44.63;100752.00;109795;1272;22423;-75
2022/05/17 02:32:07;;;;;;;1.80;1.70;;;;;;;12.50;44.71;100748.48;109651;1273;22338;-74
2022/05/17 02:34:36;;;;;;;2.30;1.50;;;;;;;12.47;44.73;100750.11;109672;1273;22347;-74
2022/05/17 02:37:05;;;;;;;2.50;1.60;;;;;;;12.44;44.67;100758.63;109654;1273;22471;-74
2022/05/17 02:39:32;;;;;;;2.50;1.50;;;;;;;12.40;44.74;100758.84;109538;1273;22393;-74
2022/05/17 02:41:58;;;;;;;5.30;2.30;;;;;;;12.37;44.91;100758.52;109691;1272;22426;-75
2022/05/17 02:44:25;;;;;;;3.00;1.80;;;;;;;12.35;45.07;100764.35;109687;1271;22781;-74
2022/05/17 02:46:51;;;;;;;3.00;2.00;;;;;;;12.29;44.97;100764.77;109672;1273;22383;-74
2022/05/17 02:49:17;;;;;;;2.60;1.80;;;;;;;12.26;45.14;100771.16;109548;1274;22356;-74
2022/05/17 02:51:44;;;;;;;3.20;1.70;;;;;;;12.24;45.21;100770.11;109703;1272;22344;-75
2022/05/17 02:54:11;;;;;;;3.50;2.00;;;;;;;12.23;45.21;100772.42;109084;1277;22445;-74
2022/05/17 02:56:38;;;;;;;3.30;1.80;;;;;;;12.19;45.39;100772.13;109249;1277;22611;-74
2022/05/17 02:59:04;;;;;;;3.50;1.90;;;;;;;12.17;45.54;100772.48;109185;1277;22246;-74
2022/05/17 03:01:30;;;;;;;2.80;1.80;;;;;;;12.18;45.62;100775.11;109346;1277;23122;-74
2022/05/17 03:03:57;;;;;;;4.80;1.70;;;;;;;12.15;45.56;100774.27;109209;1277;22421;-74
2022/05/17 03:06:23;;;;;;;2.70;1.70;;;;;;;12.12;45.72;100783.83;109350;1276;23124;-74
2022/05/17 03:08:50;;;;;;;1.90;1.60;;;;;;;12.11;45.95;100784.54;109177;1278;22446;-74
2022/05/17 03:11:16;;;;;;;2.60;1.80;;;;;;;12.09;45.74;100787.39;109244;1277;22380;-74
2022/05/17 03:13:43;;;;;;;3.20;1.70;;;;;;;12.06;45.79;100786.33;109066;1277;22495;-74
2022/05/17 03:16:10;;;;;;;2.80;1.90;;;;;;;12.08;45.85;100789.52;109049;1278;22421;-74
2022/05/17 03:18:39;;;;;;;4.10;1.70;;;;;;;12.05;45.99;100794.80;109500;1272;22365;-75
2022/05/17 03:21:05;;;;;;;3.00;1.80;;;;;;;12.02;46.04;100792.89;109731;1271;22377;-73
2022/05/17 03:23:32;;;;;;;3.20;1.40;;;;;;;12.00;46.12;100794.49;109792;1271;22367;-73
2022/05/17 03:25:58;;;;;;;2.90;1.70;;;;;;;11.98;46.00;100793.10;109656;1274;22474;-74
2022/05/17 03:28:25;;;;;;;2.90;2.00;;;;;;;11.95;46.10;100788.70;109683;1271;22459;-74
2022/05/17 03:30:51;;;;;;;5.00;1.60;;;;;;;11.96;46.29;100787.30;109669;1272;23381;-74
2022/05/17 03:33:17;;;;;;;2.90;1.60;;;;;;;11.96;46.15;100785.36;109697;1272;22388;-73
2022/05/17 03:35:44;;;;;;;4.80;1.40;;;;;;;11.93;46.02;100783.95;109533;1273;23085;-73
2022/05/17 03:38:10;;;;;;;1.80;1.60;;;;;;;11.95;45.96;100791.89;109610;1272;22400;-74
2022/05/17 03:40:36;;;;;;;2.60;1.50;;;;;;;11.91;45.61;100787.50;109732;1274;22364;-74
2022/05/17 03:43:02;;;;;;;2.80;1.80;;;;;;;11.90;45.48;100788.76;109677;1272;22442;-75
2022/05/17 03:45:29;;;;;;;2.70;1.50;;;;;;;11.86;45.25;100785.25;109590;1272;22402;-76
2022/05/17 03:47:55;;;;;;;1.90;1.10;;;;;;;11.81;44.73;100787.94;109353;1277;22402;-74
2022/05/17 03:50:21;;;;;;;1.40;1.20;;;;;;;11.81;44.74;100783.89;109357;1278;22347;-75
2022/05/17 03:52:48;;;;;;;1.80;1.20;;;;;;;11.82;44.53;100786.53;109388;1278;22493;-73
2022/05/17 03:55:15;;;;;;;4.10;1.20;;;;;;;11.76;44.33;100787.10;109231;1279;22880;-74
2022/05/17 03:57:42;;;;;;;3.90;1.90;;;;;;;11.76;44.24;100787.45;109338;1279;22416;-74
2022/05/17 04:00:10;;;;;;;2.20;1.20;;;;;;;11.79;44.17;100792.55;109203;1278;22473;-76
2022/05/17 04:02:39;;;;;;;3.00;1.50;;;;;;;11.79;43.91;100788.84;108652;1284;22455;-75
2022/05/17 04:05:09;;;;;;;1.60;1.30;;;;;;;11.77;43.86;100787.80;108685;1277;22499;-75
2022/05/17 04:07:35;;;;;;;2.70;1.40;;;;;;;11.78;43.59;100786.90;109357;1277;22391;-74
2022/05/17 04:10:03;;;;;;;2.80;1.30;;;;;;;11.79;43.28;100790.42;109358;1277;22490;-73
2022/05/17 04:12:30;;;;;;;3.40;2.00;;;;;;;11.70;43.03;100789.09;109334;1277;22362;-74
2022/05/17 04:14:56;;;;;;;2.70;1.80;;;;;;;11.63;43.09;100790.54;109057;1278;22479;-74
2022/05/17 04:17:26;;;;;;;3.60;1.40;;;;;;;11.58;43.17;100793.21;109236;1278;22502;-74
2022/05/17 04:19:52;;;;;;;3.10;1.50;;;;;;;11.56;43.39;100786.19;109208;1273;22915;-75
2022/05/17 04:22:19;;;;;;;2.90;1.40;;;;;;;11.59;43.30;100785.98;109534;1273;22384;-79
2022/05/17 04:24:45;;;;;;;2.30;1.40;;;;;;;11.62;43.41;100784.73;109744;1272;22345;-78
2022/05/17 04:27:13;;;;;;;2.80;1.20;;;;;;;11.63;43.22;100787.19;109779;1272;22409;-78
2022/05/17 04:29:39;;;;;;;2.20;1.30;;;;;;;11.61;43.14;100793.38;109646;1274;22430;-77
2022/05/17 04:32:06;;;;;;;6.40;1.40;;;;;;;11.60;43.17;100801.84;109445;1273;22292;-78
2022/05/17 04:34:33;;;;;;;4.60;1.30;;;;;;;11.62;43.42;100806.43;109696;1273;22179;-78
2022/05/17 04:36:59;;;;;;;5.60;1.60;;;;;;;11.66;43.47;100805.34;109592;1272;23056;-77
2022/05/17 04:39:25;;;;;;;3.00;1.50;;;;;;;11.66;43.42;100808.67;109290;1278;22671;-79
2022/05/17 04:41:52;;;;;;;6.10;1.70;;;;;;;11.68;43.57;100812.02;109066;1277;22417;-77
2022/05/17 04:44:18;;;;;;;3.60;1.60;;;;;;;11.71;43.62;100819.06;109261;1277;22402;-77
2022/05/17 04:46:45;;;;;;;2.50;1.40;;;;;;;11.73;43.85;100824.52;109068;1278;22464;-78
2022/05/17 04:49:11;;;;;;;5.00;1.70;;;;;;;11.77;43.99;100831.56;109283;1278;22397;-75
2022/05/17 04:51:38;;;;;;;5.80;1.90;;;;;;;11.76;43.91;100831.02;109066;1278;22216;-84
2022/05/17 04:54:04;;;;;;;5.10;2.00;;;;;;;11.73;43.99;100829.45;109056;1277;22395;-77
2022/05/17 04:56:31;;;;;;;3.80;1.70;;;;;;;11.75;43.95;100832.29;109235;1278;22371;-77
2022/05/17 04:58:57;;;;;;;3.70;2.00;;;;;;;11.77;44.11;100838.63;109006;1277;23303;-75
2022/05/17 05:01:24;;;;;;;4.90;1.70;;;;;;;11.79;44.05;100840.55;108454;1284;23251;-76
2022/05/17 05:03:50;;;;;;;4.60;1.40;;;;;;;11.80;43.90;100841.41;107968;1287;22202;-75
2022/05/17 05:06:16;;;;;;;3.70;1.50;;;;;;;11.82;44.04;100841.23;107850;1290;22695;-74
2022/05/17 05:08:42;;;;;;;5.80;1.60;;;;;;;11.87;44.21;100841.02;107681;1290;22412;-75
2022/05/17 05:11:11;;;;;;;2.70;1.30;;;;;;;11.95;44.35;100840.42;107773;1291;22480;-78
2022/05/17 05:13:37;;;;;;;2.40;1.40;;;;;;;12.02;44.19;100839.13;107685;1289;22606;-77
2022/05/17 05:16:08;;;;;;;6.60;2.00;;;;;;;12.03;44.21;100837.54;107978;1289;23215;-77
2022/05/17 05:18:39;;;;;;;3.50;1.60;;;;;;;12.07;44.43;100839.80;107585;1290;22499;-74
2022/05/17 05:21:12;;;;;;;3.60;1.80;;;;;;;12.11;44.19;100843.15;108198;1284;22509;-75
2022/05/17 05:23:43;;;;;;;3.40;1.50;;;;;;;12.17;44.20;100838.69;108702;1277;22389;-75
2022/05/17 05:26:11;;;;;;;2.90;1.90;;;;;;;12.25;44.06;100836.15;109404;1277;22493;-75
2022/05/17 05:28:39;;;;;;;5.40;1.50;;;;;;;12.34;44.07;100835.73;108969;1281;22464;-75
2022/05/17 05:31:05;;;;;;;2.10;1.90;;;;;;;12.43;43.97;100837.23;108708;1281;22281;-74
2022/05/17 05:33:34;;;;;;;3.80;1.70;;;;;;;12.51;43.81;100832.90;108730;1281;23005;-74
2022/05/17 05:36:03;;;;;;;3.90;1.80;;;;;;;12.59;43.83;100837.60;108756;1277;22470;-77
2022/05/17 05:38:29;;;;;;;4.30;1.80;;;;;;;12.63;43.43;100836.67;109366;1277;22472;-91
2022/05/17 05:40:56;;;;;;;5.90;1.70;;;;;;;12.68;43.52;100832.38;109118;1278;22467;-88
2022/05/17 05:43:25;;;;;;;7.70;1.40;;;;;;;12.71;43.49;100835.52;109327;1276;22442;-87
2022/05/17 05:45:51;;;;;;;4.40;1.70;;;;;;;12.71;43.17;100838.70;109185;1274;22585;-88
2022/05/17 05:48:18;;;;;;;3.60;1.80;;;;;;;12.71;42.73;100839.06;109518;1274;22369;-87
2022/05/17 05:50:47;;;;;;;6.60;1.90;;;;;;;12.77;42.52;100838.10;109132;1278;22400;-89
2022/05/17 05:53:15;;;;;;;6.40;2.10;;;;;;;12.83;42.49;100840.17;109137;1277;22493;-88
2022/05/17 05:55:42;;;;;;;9.00;1.60;;;;;;;12.88;42.31;100839.41;109154;1278;22406;-90
2022/05/17 05:58:10;;;;;;;5.90;1.70;;;;;;;12.95;42.04;100840.40;109362;1277;22428;-91
2022/05/17 06:00:37;;;;;;;7.70;1.60;;;;;;;13.05;41.88;100849.64;109199;1278;22427;-91
2022/05/17 06:03:05;;;;;;;4.70;1.80;;;;;;;13.11;41.72;100847.63;109288;1278;22855;-92
2022/05/17 06:05:32;;;;;;;3.60;1.30;;;;;;;13.14;41.58;100846.34;109318;1277;22381;-92
2022/05/17 06:07:58;;;;;;;3.60;1.10;;;;;;;13.17;41.54;100845.77;109506;1273;22445;-93
2022/05/17 06:10:27;;;;;;;6.30;1.70;;;;;;;13.20;41.22;100845.91;109754;1272;22371;-92
2022/05/17 06:12:53;;;;;;;6.90;1.80;;;;;;;13.20;41.08;100849.45;109618;1273;22970;-91
2022/05/17 06:15:20;;;;;;;8.00;1.40;;;;;;;13.17;40.65;100854.80;109736;1273;23238;-90
2022/05/17 06:17:49;;;;;;;2.70;1.50;;;;;;;13.18;40.95;100855.85;109664;1272;22428;-90
2022/05/17 06:20:16;;;;;;;3.40;1.20;;;;;;;13.22;40.65;100850.84;109537;1274;22376;-89
2022/05/17 06:22:44;;;;;;;6.40;2.00;;;;;;;13.28;40.87;100852.71;109512;1273;22401;-92
2022/05/17 06:25:12;;;;;;;7.30;1.40;;;;;;;13.30;40.78;100855.69;109616;1273;23136;-90
2022/05/17 06:27:38;;;;;;;6.50;1.70;;;;;;;13.34;40.71;100853.17;108782;1278;23031;-90
2022/05/17 06:30:05;;;;;;;3.70;1.20;;;;;;;13.35;40.41;100856.34;109122;1278;22242;-90
2022/05/17 06:32:32;;;;;;;3.60;1.30;;;;;;;13.38;40.03;100854.88;109080;1278;22363;-89
2022/05/17 06:34:58;;;;;;;4.90;1.10;;;;;;;13.36;40.16;100858.09;109082;1278;22390;-90
2022/05/17 06:37:24;;;;;;;6.20;1.10;;;;;;;13.39;40.43;100854.70;109104;1278;22417;-89
2022/05/17 06:39:51;;;;;;;3.30;1.20;;;;;;;13.42;40.12;100846.52;108945;1278;23070;-88
2022/05/17 06:42:20;;;;;;;3.60;1.20;;;;;;;13.47;39.84;100848.40;109145;1278;23116;-89
2022/05/17 06:44:46;;;;;;;10.30;1.60;;;;;;;13.51;39.85;100846.77;109213;1274;22508;-89
2022/05/17 06:47:12;;;;;;;4.60;1.30;;;;;;;13.60;39.70;100847.89;109709;1273;22492;-89
2022/05/17 06:49:40;;;;;;;3.90;1.70;;;;;;;13.65;39.30;100850.99;109763;1273;22347;-90
2022/05/17 06:52:08;;;;;;;11.20;1.40;;;;;;;13.72;38.96;100851.27;109590;1273;22425;-87
2022/05/17 06:54:41;;;;;;;6.20;1.40;;;;;;;13.83;38.83;100854.10;109703;1272;22402;-89
2022/05/17 06:57:12;;;;;;;5.60;0.90;;;;;;;13.92;38.32;100855.74;109692;1273;22242;-88
2022/05/17 06:59:40;;;;;;;5.40;1.00;;;;;;;14.02;37.69;100858.61;109603;1273;22443;-88
2022/05/17 07:02:07;;;;;;;7.80;1.40;;;;;;;14.13;37.52;100855.59;109631;1273;22371;-89
2022/05/17 07:04:36;;;;;;;6.20;1.30;;;;;;;14.15;37.34;100851.67;109718;1273;22340;-89
2022/05/17 07:07:04;;;;;;;3.40;1.00;;;;;;;14.14;37.29;100849.02;109701;1273;23097;-88
2022/05/17 07:09:31;;;;;;;3.80;1.20;;;;;;;14.15;37.48;100839.08;109674;1273;22208;-88
2022/05/17 07:14:49;;;;;;;3.30;1.10;;;;;;;14.24;37.07;100838.91;109390;1276;22505;-90
2022/05/17 07:17:20;;;;;;;5.80;1.00;;;;;;;14.27;36.96;100838.69;109229;1279;22436;-88
2022/05/17 07:19:47;;;;;;;1.90;1.10;;;;;;;14.27;36.90;100844.73;109378;1279;22255;-88
2022/05/17 07:22:15;;;;;;;5.30;1.20;;;;;;;14.31;36.57;100843.61;109149;1278;22246;-91
2022/05/17 07:24:45;;;;;;;6.20;1.70;;;;;;;14.35;36.49;100848.31;109265;1279;22375;-88
2022/05/17 07:27:13;;;;;;;5.10;1.00;;;;;;;14.41;36.70;100846.80;109392;1276;22838;-89
2022/05/17 07:29:48;;;;;;;3.40;0.90;;;;;;;14.53;36.64;100848.88;109457;1278;23271;-88
2022/05/17 07:32:15;;;;;;;5.60;1.30;;;;;;;14.71;36.52;100851.38;109531;1279;22403;-88
2022/05/17 07:34:42;;;;;;;2.40;0.80;;;;;;;14.88;35.84;100859.09;109492;1278;22437;-90
2022/05/17 07:37:08;;;;;;;4.50;0.90;;;;;;;15.00;35.45;100855.98;109250;1278;22339;-90
2022/05/17 07:39:34;;;;;;;3.30;0.90;;;;;;;15.07;34.53;100859.05;109523;1272;22348;-88
2022/05/17 07:42:05;;;;;;;1.30;0.90;;;;;;;15.09;34.18;100862.20;109538;1276;22489;-88
2022/05/17 07:44:34;;;;;;;1.80;0.70;;;;;;;15.13;34.23;100860.89;109571;1279;22467;-88
2022/05/17 07:47:01;;;;;;;4.30;1.00;;;;;;;15.23;34.36;100862.45;109433;1279;22338;-90
2022/05/17 07:49:29;;;;;;;3.00;0.70;;;;;;;15.37;34.40;100855.96;109452;1278;22421;-89
2022/05/17 07:51:56;;;;;;;4.50;0.90;;;;;;;15.45;34.28;100855.24;109424;1279;22358;-90
2022/05/17 07:54:23;;;;;;;5.60;1.00;;;;;;;15.55;34.06;100856.78;109593;1278;22412;-88
2022/05/17 07:56:49;;;;;;;5.10;1.10;;;;;;;15.67;33.98;100857.79;109715;1276;22554;-87
2022/05/17 07:59:15;;;;;;;5.20;0.90;;;;;;;15.81;34.23;100861.02;109550;1277;22633;-88
2022/05/17 08:01:42;;;;;;;2.90;0.90;;;;;;;15.95;33.66;100865.67;109248;1279;22588;-89
2022/05/17 08:04:08;;;;;;;4.80;0.70;;;;;;;16.13;33.70;100861.17;109165;1279;23105;-89
2022/05/17 08:06:35;;;;;;;4.10;0.70;;;;;;;16.28;33.65;100858.65;109482;1274;22948;-88
2022/05/17 08:09:03;;;;;;;2.20;0.80;;;;;;;16.43;33.34;100852.41;109137;1281;22628;-88
2022/05/17 08:11:29;;;;;;;2.60;0.80;;;;;;;16.53;33.11;100854.83;109185;1280;22485;-89
2022/05/17 08:13:56;;;;;;;3.10;1.10;;;;;;;16.62;32.62;100855.29;109205;1280;22459;-88
2022/05/17 08:16:39;;;;;;;3.40;0.90;;;;;;;16.65;32.55;100851.48;109475;1280;22412;-87
2022/05/17 08:19:05;;;;;;;6.10;0.90;;;;;;;16.70;32.36;100854.02;109334;1280;22374;-89
2022/05/17 08:21:31;;;;;;;2.80;0.90;;;;;;;16.77;32.38;100858.08;109380;1281;23121;-88
2022/05/17 08:23:58;;;;;;;1.70;1.00;;;;;;;16.85;32.34;100855.38;109031;1281;22469;-88
2022/05/17 08:29:10;;;;;;;1.10;0.70;;;;;;;16.96;32.26;100855.77;109344;1280;22372;-88
2022/05/17 08:31:37;;;;;;;4.10;1.10;;;;;;;17.08;32.07;100852.97;108715;1284;22623;-88
2022/05/17 08:34:04;;;;;;;1.20;0.80;;;;;;;17.19;31.53;100852.52;109020;1281;22428;-89
2022/05/17 08:36:30;;;;;;;3.00;0.80;;;;;;;17.36;30.99;100850.74;109443;1279;22446;-89
2022/05/17 08:38:57;;;;;;;1.80;0.70;;;;;;;17.53;31.22;100848.27;108467;1284;23089;-86
2022/05/17 08:41:50;;;;;;;4.50;0.80;;;;;;;17.66;30.95;100851.46;108659;1284;22473;-85
2022/05/17 08:44:23;;;;;;;1.70;0.80;;;;;;;17.77;30.99;100852.73;108485;1285;22206;-87
2022/05/17 08:47:17;;;;;;;3.10;0.80;;;;;;;17.86;30.72;100850.30;108533;1285;22378;-87
2022/05/17 08:50:19;;;;;;;4.50;0.80;;;;;;;17.93;30.60;100848.66;109036;1279;22476;-86
2022/05/17 08:52:46;;;;;;;1.30;0.70;;;;;;;17.98;30.57;100846.15;109284;1279;22389;-87
2022/05/17 08:55:29;;;;;;;2.00;1.00;;;;;;;18.02;30.38;100848.52;109486;1279;22491;-86
2022/05/17 08:58:00;;;;;;;1.50;0.90;;;;;;;18.19;30.42;100838.17;109795;1273;22485;-88
2022/05/17 09:00:36;;;;;;;1.60;0.80;;;;;;;18.38;30.45;100836.65;109508;1273;22392;-88
2022/05/17 09:03:13;;;;;;;4.50;0.80;;;;;;;18.60;30.24;100836.45;109466;1278;22406;-87
2022/05/17 09:06:09;;;;;;;1.70;0.90;;;;;;;18.80;29.78;100836.09;109366;1279;22388;-88
2022/05/17 09:09:07;;;;;;;4.00;0.70;;;;;;;19.00;29.66;100840.16;109365;1279;22514;-88
2022/05/17 09:11:51;;;;;;;3.00;0.60;;;;;;;19.24;29.83;100838.96;109213;1279;23175;-87
2022/05/17 09:14:21;;;;;;;1.90;0.70;;;;;;;19.45;29.12;100834.75;109449;1279;22425;-89
2022/05/17 09:17:10;;;;;;;1.60;0.50;;;;;;;19.63;28.74;100834.41;108820;1283;22369;-87
2022/05/17 09:19:37;;;;;;;1.10;0.90;;;;;;;19.72;28.79;100835.66;108682;1284;22448;-87
2022/05/17 09:22:06;;;;;;;4.20;0.80;;;;;;;19.80;28.40;100840.69;109248;1278;22403;-88
2022/05/17 09:24:42;;;;;;;5.20;0.60;;;;;;;19.75;28.39;100844.48;109286;1279;22288;-87
2022/05/17 09:27:49;;;;;;;4.40;1.30;;;;;;;19.74;27.95;100840.21;109269;1277;22185;-88
2022/05/17 09:30:22;;;;;;;3.60;0.70;;;;;;;19.76;27.95;100838.36;108624;1284;22420;-87
2022/05/17 09:33:00;;;;;;;1.60;1.00;;;;;;;19.80;28.05;100841.75;108701;1283;22824;-88
2022/05/17 09:35:27;;;;;;;1.40;0.70;;;;;;;19.87;27.67;100837.01;108942;1281;22402;-88
2022/05/17 09:37:59;;;;;;;1.90;0.60;;;;;;;19.96;27.89;100837.36;109092;1281;22369;-87
2022/05/17 09:40:32;;;;;;;2.20;0.90;;;;;;;20.16;27.79;100837.83;109041;1281;22432;-89
2022/05/17 09:42:59;;;;;;;1.90;0.70;;;;;;;20.32;27.56;100835.37;109123;1280;22411;-87
2022/05/17 09:45:45;;;;;;;2.40;0.70;;;;;;;20.44;27.50;100836.09;109192;1280;22481;-87
2022/05/17 09:48:25;;;;;;;2.10;0.80;;;;;;;20.68;27.22;100834.87;109193;1280;22490;-87
2022/05/17 09:53:45;;;;;;;5.80;0.60;;;;;;;20.94;26.25;100830.00;109242;1281;22555;-87
2022/05/17 09:56:12;;;;;;;0.60;0.60;;;;;;;20.90;25.96;100832.64;109159;1281;22622;-88
2022/05/17 09:58:42;;;;;;;5.60;0.70;;;;;;;20.85;25.84;100831.10;109243;1281;22373;-89
2022/05/17 10:01:11;;;;;;;2.10;0.80;;;;;;;20.83;25.97;100830.84;109076;1279;22501;-89
2022/05/17 10:03:41;;;;;;;1.90;0.70;;;;;;;20.71;25.64;100834.92;109534;1277;22480;-89
2022/05/17 10:06:13;;;;;;;2.60;0.70;;;;;;;20.67;25.84;100831.70;109168;1277;22484;-89
2022/05/17 10:09:10;;;;;;;2.80;0.80;;;;;;;20.56;25.56;100832.54;109424;1277;22618;-89
2022/05/17 10:11:59;;;;;;;2.00;0.70;;;;;;;20.59;25.58;100829.75;109350;1277;22535;-88
2022/05/17 10:14:40;;;;;;;4.50;0.80;;;;;;;20.69;25.51;100821.98;109290;1277;22369;-88
2022/05/17 10:17:24;;;;;;;1.50;0.70;;;;;;;20.79;25.47;100818.82;109304;1277;22361;-88
2022/05/17 10:20:05;;;;;;;2.00;0.70;;;;;;;20.89;25.11;100819.63;109660;1273;22343;-88
2022/05/17 10:22:32;;;;;;;3.50;0.80;;;;;;;20.93;25.16;100816.98;109689;1274;22382;-87
2022/05/17 10:25:04;;;;;;;3.00;0.60;;;;;;;21.08;25.01;100816.29;109665;1274;23073;-87
2022/05/17 10:27:34;;;;;;;4.20;0.60;;;;;;;21.24;24.78;100810.72;109343;1279;22494;-89
2022/05/17 10:30:10;;;;;;;3.10;0.60;;;;;;;21.39;24.77;100810.73;109374;1279;22442;-87
2022/05/17 10:32:50;;;;;;;2.50;1.10;;;;;;;21.60;24.66;100807.96;108962;1281;22499;-88
2022/05/17 10:35:28;;;;;;;3.00;0.70;;;;;;;21.78;24.48;100809.95;109372;1280;22557;-88
2022/05/17 10:38:01;;;;;;;1.60;0.90;;;;;;;21.97;23.98;100805.27;109379;1281;22416;-87
2022/05/17 10:40:31;;;;;;;6.50;0.90;;;;;;;22.13;23.93;100805.02;109459;1281;22395;-88
2022/05/17 10:42:59;;;;;;;4.20;0.70;;;;;;;22.30;23.78;100802.18;109044;1279;22433;-88
2022/05/17 10:45:35;;;;;;;1.80;0.50;;;;;;;22.47;23.51;100802.55;108927;1281;22764;-86
2022/05/17 10:48:46;;;;;;;0.80;0.50;;;;;;;22.52;22.96;100803.89;109269;1281;22432;-88
2022/05/17 10:51:41;;;;;;;4.50;0.70;;;;;;;22.66;23.03;100804.10;109420;1274;22718;-88
2022/05/17 10:54:19;;;;;;;3.30;0.60;;;;;;;22.86;22.93;100801.62;109628;1274;219973;-87
2022/05/17 10:57:07;;;;;;;1.10;0.50;;;;;;;23.00;22.90;100798.48;109801;1272;22458;-88
2022/05/17 10:59:40;;;;;;;2.00;0.70;;;;;;;23.09;22.66;100796.44;109717;1274;22384;-89
2022/05/17 11:02:15;;;;;;;1.70;0.60;;;;;;;23.26;22.71;100794.19;109638;1274;22306;-87
2022/05/17 11:05:02;;;;;;;1.70;0.40;;;;;;;23.40;22.59;100794.17;109751;1274;22387;-88
2022/05/17 11:07:34;;;;;;;0.80;0.50;;;;;;;23.68;22.11;100792.41;109629;1274;22426;-88
2022/05/17 11:10:19;;;;;;;5.20;0.60;;;;;;;23.91;22.06;100784.95;109834;1273;23156;-89
2022/05/17 11:12:56;;;;;;;1.90;0.70;;;;;;;24.18;21.75;100784.66;109817;1273;22348;-87
2022/05/17 11:15:33;;;;;;;2.40;0.70;;;;;;;24.39;21.75;100782.52;109669;1273;22365;-87
2022/05/17 11:18:11;;;;;;;3.20;0.70;;;;;;;24.47;21.49;100781.61;109667;1274;22328;-88
2022/05/17 11:21:01;;;;;;;4.00;0.80;;;;;;;24.58;21.29;100779.02;109687;1272;22425;-86
2022/05/17 11:23:36;;;;;;;2.70;1.40;;;;;;;24.54;21.07;100778.87;109647;1273;22358;-88
2022/05/17 11:26:20;;;;;;;2.00;1.20;;;;;;;24.46;21.04;100783.31;109815;1274;23260;-88
2022/05/17 11:29:14;;;;;;;7.80;1.00;;;;;;;24.59;21.12;100778.77;109779;1274;22572;-88
2022/05/17 11:31:58;;;;;;;2.00;1.70;;;;;;;24.81;21.10;100779.21;109755;1274;22401;-88
2022/05/17 11:34:33;;;;;;;1.10;0.60;;;;;;;24.93;21.20;100777.58;109685;1274;22326;-87
2022/05/17 11:37:08;;;;;;;2.20;0.80;;;;;;;25.15;20.70;100775.08;109752;1274;22494;-88
2022/05/17 11:39:40;;;;;;;2.20;0.70;;;;;;;24.96;19.62;100772.67;109660;1273;22344;-88
2022/05/17 11:42:26;;;;;;;0.70;0.70;;;;;;;24.38;20.22;100775.04;109806;1274;22337;-88